ADDS METAR Data INFO
IDs: Format: Raw Decoded Include TAF

Data at: 1058 UTC 16 Jul 2018

METAR for:KS52 (Methow Valley State, WA, US)
Text:KS52 161035Z AUTO 00000KT 10SM CLR 12/09 A3002 RMK AO2 T01210088
Temperature: 12.1°C ( 54°F)
Dewpoint: 8.8°C ( 48°F) [RH = 80%]
Pressure (altimeter):30.02 inches Hg (1016.7 mb)
Winds:calm
Visibility:10 or more sm (16+ km)
Ceiling:at least 12,000 feet AGL
Clouds:sky clear below 12,000 feet AGL
QC Flag:automated observation with no human augmentation